Time;durP1;ratioP1;P1;durP2;ratioP2;P2;SDS_P1;SDS_P2;PMS_P1;PMS_P2;Temp;Humidity;BMP_temperature;BMP_pressure;BME280_temperature;BME280_humidity;BME280_pressure;Samples;Min_cycle;Max_cycle;Signal;HPM_P1;HPM_P2
2022/05/01 13:37:04;;;;;;;29.00;13.18;;;23.90;50.00;;;;;;4976409;28;20448;-53
2022/05/01 13:48:16;;;;;;;18.38;12.15;;;24.00;50.00;;;;;;5072084;28;21293;-56
2022/05/01 13:50:42;;;;;;;20.00;11.60;;;23.90;49.20;;;;;;4944390;28;20040;-57
2022/05/01 13:53:13;;;;;;;26.52;12.10;;;23.90;49.60;;;;;;5017649;28;20024;-55
2022/05/01 13:55:38;;;;;;;25.80;11.98;;;24.10;49.50;;;;;;4957068;28;20036;-59
2022/05/01 13:58:04;;;;;;;15.10;12.48;;;24.10;49.40;;;;;;4987208;28;20043;-59
2022/05/01 14:00:29;;;;;;;18.60;12.10;;;24.00;49.00;;;;;;5057151;28;20025;-65
2022/05/01 14:02:55;;;;;;;15.23;11.75;;;23.90;48.40;;;;;;5053984;28;20484;-60
2022/05/01 14:05:20;;;;;;;15.98;12.05;;;23.80;48.10;;;;;;5055233;28;20792;-65
2022/05/01 14:07:46;;;;;;;14.40;10.35;;;23.70;48.20;;;;;;5054902;28;20040;-58
2022/05/01 14:10:11;;;;;;;14.02;10.02;;;23.80;49.00;;;;;;5006035;28;20097;-61
2022/05/01 14:12:37;;;;;;;12.75;9.45;;;23.90;48.90;;;;;;4952469;28;63201;-60
2022/05/01 14:15:03;;;;;;;13.23;9.05;;;24.00;48.80;;;;;;5037368;28;20124;-59
2022/05/01 14:17:28;;;;;;;10.57;8.93;;;24.10;48.80;;;;;;5017756;28;20044;-63
2022/05/01 14:19:55;;;;;;;10.98;9.27;;;24.20;48.80;;;;;;4990629;28;20040;-63
2022/05/01 14:22:21;;;;;;;10.40;8.30;;;24.20;48.80;;;;;;5036085;28;20070;-59
2022/05/01 14:24:52;;;;;;;12.68;8.48;;;24.20;48.80;;;;;;4980056;28;20025;-61
2022/05/01 14:27:18;;;;;;;10.68;8.20;;;24.30;48.90;;;;;;5042290;28;20037;-60
2022/05/01 14:29:44;;;;;;;9.68;7.93;;;24.30;48.90;;;;;;5035141;28;20021;-58
2022/05/01 14:32:21;;;;;;;8.95;7.75;;;24.30;49.00;;;;;;5042442;28;20044;-60
2022/05/01 14:35:08;;;;;;;9.05;7.57;;;24.40;49.10;;;;;;5016879;28;20566;-67
2022/05/01 14:37:42;;;;;;;10.95;7.68;;;24.40;49.20;;;;;;5029982;28;20069;-63
2022/05/01 14:40:09;;;;;;;;;;;24.40;49.20;;;;;;5024642;28;20075;-59
2022/05/01 14:42:35;;;;;;;8.98;7.60;;;24.40;49.20;;;;;;5027273;28;19955;-59
2022/05/01 14:45:05;;;;;;;8.38;7.40;;;24.40;49.20;;;;;;5011365;28;20039;-53
2022/05/01 14:47:50;;;;;;;10.80;6.90;;;24.50;49.20;;;;;;4958263;28;20041;-61
2022/05/01 14:50:17;;;;;;;10.20;6.82;;;24.50;49.20;;;;;;5038449;28;20076;-55
2022/05/01 14:52:43;;;;;;;14.40;7.72;;;24.60;49.30;;;;;;5032763;28;20060;-56
2022/05/01 14:55:09;;;;;;;14.13;6.82;;;24.60;48.80;;;;;;5038548;28;20473;-58
2022/05/01 14:57:35;;;;;;;24.35;8.13;;;24.50;48.90;;;;;;5030912;28;20025;-62
2022/05/01 15:08:27;;;;;;;26.95;9.23;;;24.50;48.90;;;;;;5020320;28;20084;-59
2022/05/01 15:10:53;;;;;;;42.72;9.32;;;24.50;48.90;;;;;;5016397;28;20482;-54
2022/05/01 15:13:19;;;;;;;35.50;9.73;;;24.50;49.00;;;;;;5021962;28;20759;-57
2022/05/01 15:16:04;;;;;;;35.20;10.18;;;24.50;48.90;;;;;;5023238;28;20033;-55
2022/05/01 15:18:43;;;;;;;32.97;8.95;;;24.60;49.10;;;;;;5024663;28;20068;-61
2022/05/01 15:21:15;;;;;;;34.97;8.85;;;24.60;49.10;;;;;;5021685;28;20036;-58
2022/05/01 16:25:51;;;;;;;14.82;7.60;;;24.60;54.50;;;;;;5032048;27;20523;-71
2022/05/01 16:28:27;;;;;;;17.27;7.68;;;25.70;53.50;;;;;;4922214;28;20493;-71
2022/05/01 16:30:53;;;;;;;12.30;7.55;;;24.90;52.40;;;;;;4918618;28;20055;-79
2022/05/01 16:33:42;;;;;;;15.85;7.60;;;24.90;52.50;;;;;;4937101;28;20033;-74
2022/05/01 16:36:08;;;;;;;14.02;7.25;;;25.00;52.50;;;;;;5015893;28;20025;-74
2022/05/01 16:38:34;;;;;;;23.10;7.45;;;25.20;52.80;;;;;;5017757;28;20312;-74
2022/05/01 16:41:00;;;;;;;15.75;7.72;;;25.20;52.50;;;;;;4946481;28;20058;-78
2022/05/01 16:43:28;;;;;;;12.50;7.25;;;25.80;52.90;;;;;;4950624;28;20700;-76
2022/05/01 16:45:54;;;;;;;10.90;6.90;;;24.80;52.20;;;;;;4981366;28;20042;-75
2022/05/01 16:48:20;;;;;;;13.13;7.60;;;24.80;52.50;;;;;;4991480;28;20077;-74
2022/05/01 16:50:47;;;;;;;14.32;7.35;;;24.80;52.40;;;;;;4998520;28;20137;-74
2022/05/01 16:53:17;;;;;;;12.60;7.07;;;24.90;52.40;;;;;;5020132;28;20084;-74
2022/05/01 16:55:42;;;;;;;11.60;6.82;;;24.80;52.30;;;;;;5033169;28;20025;-73
2022/05/01 16:58:08;;;;;;;17.42;6.68;;;24.80;52.20;;;;;;5019565;28;20124;-74
2022/05/01 17:00:35;;;;;;;15.25;7.85;;;24.80;52.20;;;;;;4979792;28;20100;-80
2022/05/01 17:03:13;;;;;;;10.77;7.05;;;24.80;52.20;;;;;;4997604;28;20124;-78
2022/05/01 17:05:54;;;;;;;19.90;7.57;;;24.80;51.60;;;;;;5039311;28;20041;-75
2022/05/01 17:08:30;;;;;;;13.10;7.63;;;24.80;51.50;;;;;;5017566;28;20078;-78
2022/05/01 17:11:13;;;;;;;19.23;7.28;;;24.70;51.40;;;;;;5016202;28;20038;-78
2022/05/01 17:13:58;;;;;;;9.30;6.72;;;24.80;51.30;;;;;;5016256;28;20465;-78
2022/05/01 17:16:39;;;;;;;10.98;6.97;;;24.80;51.30;;;;;;5040827;28;20036;-77
2022/05/01 17:19:10;;;;;;;11.75;6.70;;;24.70;51.20;;;;;;5031274;28;20037;-79
2022/05/01 17:21:59;;;;;;;10.27;6.57;;;24.70;51.10;;;;;;5032896;28;20044;-77
2022/05/01 17:24:50;;;;;;;11.30;6.78;;;24.80;51.00;;;;;;5020565;28;20077;-78
2022/05/01 17:27:15;;;;;;;14.23;6.95;;;24.70;51.20;;;;;;5037691;28;20136;-76
2022/05/01 17:30:13;;;;;;;10.43;7.07;;;24.70;51.20;;;;;;5012142;28;20033;-76
2022/05/01 17:32:58;;;;;;;9.95;6.00;;;24.70;51.40;;;;;;5014464;28;20064;-74
2022/05/01 17:35:25;;;;;;;13.25;6.70;;;24.70;51.60;;;;;;5012976;28;20038;-77
2022/05/01 17:37:52;;;;;;;9.98;6.38;;;24.70;51.60;;;;;;5021047;28;20032;-77
2022/05/01 17:40:17;;;;;;;12.55;6.57;;;25.70;52.20;;;;;;5007407;28;20021;-78
2022/05/01 17:42:43;;;;;;;8.88;6.70;;;25.00;51.80;;;;;;5011746;28;20033;-76
2022/05/01 17:45:10;;;;;;;13.65;6.85;;;24.70;52.30;;;;;;5006491;28;20083;-74
2022/05/01 17:47:41;;;;;;;14.18;6.82;;;24.70;51.60;;;;;;5012326;28;20096;-76
2022/05/01 17:50:08;;;;;;;14.45;6.53;;;24.80;51.70;;;;;;5009991;28;20021;-74
2022/05/01 17:52:37;;;;;;;10.30;6.20;;;24.70;51.70;;;;;;5022409;28;20036;-76
2022/05/01 17:55:06;;;;;;;8.13;6.25;;;24.70;51.70;;;;;;4990282;28;20055;-75
2022/05/01 17:57:32;;;;;;;9.70;6.45;;;24.70;51.70;;;;;;5003539;28;20112;-78
2022/05/01 17:59:57;;;;;;;9.88;6.57;;;24.90;51.80;;;;;;5018139;28;20450;-77
2022/05/01 18:02:31;;;;;;;8.38;5.82;;;24.70;51.70;;;;;;5003867;28;20025;-75
2022/05/01 18:11:32;;;;;;;10.50;6.82;;;24.70;52.00;;;;;;4984003;28;20037;-76
2022/05/01 18:14:09;;;;;;;10.52;6.50;;;24.70;51.80;;;;;;5009205;28;20504;-75
2022/05/01 18:16:57;;;;;;;9.57;7.18;;;24.80;52.00;;;;;;5002634;28;20524;-74
2022/05/01 18:19:31;;;;;;;11.00;6.60;;;24.70;52.00;;;;;;5009297;28;20046;-77
2022/05/01 18:22:05;;;;;;;11.55;6.53;;;24.70;52.10;;;;;;5020965;28;20056;-69
2022/05/01 18:25:01;;;;;;;12.75;8.18;;;24.70;52.00;;;;;;5001085;28;20061;-70
2022/05/01 18:27:36;;;;;;;12.77;7.65;;;24.80;51.80;;;;;;5005589;28;20033;-70
2022/05/01 18:30:18;;;;;;;11.23;6.93;;;24.70;51.80;;;;;;5022222;28;20060;-70
2022/05/01 18:32:53;;;;;;;9.68;7.10;;;24.70;51.90;;;;;;5018047;28;20037;-73
2022/05/01 18:35:23;;;;;;;11.70;7.10;;;24.70;52.00;;;;;;5024186;28;20037;-71
2022/05/01 18:38:21;;;;;;;10.77;7.18;;;24.60;51.90;;;;;;5002345;28;20053;-73
2022/05/01 18:40:49;;;;;;;10.18;7.85;;;24.70;51.90;;;;;;5019266;28;20740;-70
2022/05/01 18:43:19;;;;;;;13.23;8.13;;;24.60;51.80;;;;;;4999597;28;20040;-69
2022/05/01 18:45:45;;;;;;;14.38;7.38;;;24.70;51.90;;;;;;5018851;28;20041;-68
2022/05/01 18:48:11;;;;;;;13.18;7.20;;;24.70;51.90;;;;;;5000979;28;20034;-74
2022/05/01 18:50:36;;;;;;;9.80;6.90;;;24.60;51.90;;;;;;5012509;28;20523;-73
2022/05/01 18:53:02;;;;;;;11.43;7.80;;;24.60;51.90;;;;;;4986798;28;20666;-70
2022/05/01 18:55:27;;;;;;;12.75;7.45;;;24.60;52.00;;;;;;4984732;28;20064;-68
2022/05/01 18:57:53;;;;;;;12.55;7.63;;;24.60;52.00;;;;;;4999457;28;20029;-70
2022/05/01 19:00:19;;;;;;;14.20;7.90;;;25.00;52.20;;;;;;4984445;28;20462;-71
2022/05/01 19:02:45;;;;;;;13.10;7.03;;;24.60;52.20;;;;;;5026964;28;20136;-66
2022/05/01 19:05:10;;;;;;;12.32;7.20;;;24.70;52.10;;;;;;5016500;28;20033;-67
2022/05/01 19:07:41;;;;;;;9.60;6.57;;;24.90;51.80;;;;;;5026035;28;20101;-65
2022/05/01 19:10:28;;;;;;;11.63;7.20;;;24.90;51.70;;;;;;5013403;28;20021;-66
2022/05/01 19:13:17;;;;;;;10.00;6.90;;;24.80;51.80;;;;;;5004930;28;20546;-65
2022/05/01 19:15:47;;;;;;;11.57;6.95;;;24.80;51.90;;;;;;5005880;28;20573;-65
2022/05/01 19:18:36;;;;;;;11.00;7.28;;;24.80;51.90;;;;;;4994450;28;20064;-65
2022/05/01 19:21:22;;;;;;;11.05;7.10;;;25.20;52.30;;;;;;5015165;28;20512;-65
2022/05/01 19:26:55;;;;;;;11.85;7.40;;;24.70;52.10;;;;;;5012553;28;20087;-69
2022/05/01 19:29:43;;;;;;;12.27;6.90;;;24.60;52.10;;;;;;5002506;28;20362;-67
2022/05/01 19:32:25;;;;;;;9.77;7.10;;;24.60;52.20;;;;;;4993129;28;20029;-66
2022/05/01 19:35:04;;;;;;;11.20;6.80;;;24.60;52.20;;;;;;5015535;28;20498;-69
2022/05/01 19:37:43;;;;;;;10.07;7.22;;;24.60;52.20;;;;;;5013186;28;20040;-66
2022/05/01 19:40:11;;;;;;;13.63;7.40;;;24.60;52.20;;;;;;5017071;28;20210;-65
2022/05/01 19:42:58;;;;;;;11.90;7.35;;;24.60;52.20;;;;;;5019269;28;20482;-68
2022/05/01 19:45:55;;;;;;;11.48;7.40;;;24.50;52.20;;;;;;5021554;28;20041;-67
2022/05/01 19:54:04;;;;;;;9.43;6.95;;;24.60;52.30;;;;;;5022960;28;20791;-69
2022/05/01 19:56:31;;;;;;;9.23;7.13;;;25.30;52.70;;;;;;5009234;28;20095;-66
2022/05/01 19:58:59;;;;;;;8.82;7.47;;;24.50;52.20;;;;;;5011732;28;20297;-64
2022/05/01 20:01:24;;;;;;;9.02;7.53;;;24.50;52.20;;;;;;5013784;28;20519;-66
2022/05/01 20:03:57;;;;;;;9.38;7.40;;;24.80;52.40;;;;;;4998994;28;20714;-67
2022/05/01 20:06:22;;;;;;;7.93;7.13;;;24.50;52.20;;;;;;5015438;28;20347;-65
2022/05/01 20:08:48;;;;;;;9.63;7.43;;;24.50;52.30;;;;;;4988711;28;20073;-66
2022/05/01 20:11:15;;;;;;;8.48;7.25;;;24.50;52.20;;;;;;5014885;28;20373;-65
2022/05/01 20:13:43;;;;;;;8.35;7.43;;;24.50;52.20;;;;;;5003395;28;20513;-66
2022/05/01 20:16:44;;;;;;;8.88;7.43;;;24.50;52.20;;;;;;4994597;28;20033;-67
2022/05/01 20:19:25;;;;;;;10.13;8.10;;;24.50;52.20;;;;;;5009058;28;20377;-67
2022/05/01 20:21:58;;;;;;;10.57;7.50;;;24.20;52.10;;;;;;4990081;28;20041;-68
2022/05/01 20:24:28;;;;;;;10.85;7.57;;;24.50;52.20;;;;;;5006639;28;20049;-67
2022/05/01 20:27:02;;;;;;;9.07;7.30;;;24.50;52.20;;;;;;4993318;28;20471;-66
2022/05/01 20:29:31;;;;;;;9.02;6.80;;;24.40;52.20;;;;;;4995911;28;20025;-66
2022/05/01 20:32:23;;;;;;;8.82;7.15;;;24.50;52.20;;;;;;4993062;28;20041;-68
2022/05/01 20:34:53;;;;;;;8.32;7.45;;;24.50;52.20;;;;;;4992325;28;20025;-66
2022/05/01 20:37:25;;;;;;;9.70;7.65;;;24.40;52.20;;;;;;5013629;28;20033;-67
2022/05/01 20:40:08;;;;;;;7.72;7.03;;;24.50;52.30;;;;;;4993443;28;20057;-68
2022/05/01 20:42:45;;;;;;;9.48;7.72;;;24.40;52.20;;;;;;5004339;28;20060;-67
2022/05/01 20:45:11;;;;;;;9.52;8.27;;;24.40;52.20;;;;;;5005369;28;20037;-66
2022/05/01 20:47:48;;;;;;;10.10;7.28;;;24.40;52.20;;;;;;4993682;28;20485;-67
2022/05/01 20:50:14;;;;;;;8.55;7.63;;;24.40;52.20;;;;;;5007574;28;20018;-66
2022/05/01 20:53:07;;;;;;;8.55;7.65;;;24.50;52.30;;;;;;4989814;28;20087;-66
2022/05/01 20:55:34;;;;;;;9.50;7.55;;;24.40;52.20;;;;;;4985971;28;20028;-68
2022/05/01 20:58:02;;;;;;;11.50;7.40;;;24.80;52.50;;;;;;5005526;28;20037;-66
2022/05/01 21:00:27;;;;;;;9.50;7.60;;;25.20;52.70;;;;;;4973007;28;20103;-69
2022/05/01 21:02:53;;;;;;;14.43;7.60;;;25.00;52.60;;;;;;5016353;28;20033;-67
2022/05/01 21:05:20;;;;;;;9.82;7.30;;;24.40;52.30;;;;;;4991304;28;20338;-66
2022/05/01 21:07:45;;;;;;;8.73;7.57;;;24.30;52.20;;;;;;4999228;28;20029;-68
2022/05/01 21:10:11;;;;;;;8.63;6.85;;;24.40;52.30;;;;;;4978100;28;20033;-67
2022/05/01 21:12:37;;;;;;;9.75;7.40;;;24.30;52.30;;;;;;5008675;28;20034;-67
2022/05/01 21:15:03;;;;;;;8.20;7.35;;;24.30;52.20;;;;;;5012535;28;20074;-67
2022/05/01 21:17:29;;;;;;;8.85;7.43;;;24.30;52.30;;;;;;5005380;28;20053;-66
